sensor_id;sensor_type;location;lat;lon;timestamp;temperature;humidity
13268;DHT22;6702;47.068;15.458;2022-10-16T00:01:21;13.10;99.90
13268;DHT22;6702;47.068;15.458;2022-10-16T00:04:24;13.10;99.90
13268;DHT22;6702;47.068;15.458;2022-10-16T00:07:27;13.00;99.90
13268;DHT22;6702;47.068;15.458;2022-10-16T00:10:31;13.00;99.90
13268;DHT22;6702;47.068;15.458;2022-10-16T00:13:36;13.00;99.90
13268;DHT22;6702;47.068;15.458;2022-10-16T00:16:41;13.00;99.90
13268;DHT22;6702;47.068;15.458;2022-10-16T00:19:44;13.10;99.90
13268;DHT22;6702;47.068;15.458;2022-10-16T00:22:47;13.10;99.90
13268;DHT22;6702;47.068;15.458;2022-10-16T00:25:57;13.10;99.90
13268;DHT22;6702;47.068;15.458;2022-10-16T00:29:01;13.20;99.90
13268;DHT22;6702;47.068;15.458;2022-10-16T00:32:06;13.20;99.90
13268;DHT22;6702;47.068;15.458;2022-10-16T00:35:09;13.20;99.90
13268;DHT22;6702;47.068;15.458;2022-10-16T00:38:13;13.20;99.90
13268;DHT22;6702;47.068;15.458;2022-10-16T00:41:17;13.20;99.90
13268;DHT22;6702;47.068;15.458;2022-10-16T00:44:43;13.20;99.90
13268;DHT22;6702;47.068;15.458;2022-10-16T00:47:49;13.20;99.90
13268;DHT22;6702;47.068;15.458;2022-10-16T00:50:54;13.20;99.90
13268;DHT22;6702;47.068;15.458;2022-10-16T00:53:59;13.20;99.90
13268;DHT22;6702;47.068;15.458;2022-10-16T00:57:05;13.10;99.90
13268;DHT22;6702;47.068;15.458;2022-10-16T01:00:14;13.10;99.90
13268;DHT22;6702;47.068;15.458;2022-10-16T01:03:26;13.10;99.90
13268;DHT22;6702;47.068;15.458;2022-10-16T01:06:36;13.20;99.90
13268;DHT22;6702;47.068;15.458;2022-10-16T01:09:51;13.20;99.90
13268;DHT22;6702;47.068;15.458;2022-10-16T01:12:59;13.20;99.90
13268;DHT22;6702;47.068;15.458;2022-10-16T01:16:06;13.20;99.90
13268;DHT22;6702;47.068;15.458;2022-10-16T01:19:17;13.20;99.90
13268;DHT22;6702;47.068;15.458;2022-10-16T01:22:26;13.20;99.90
13268;DHT22;6702;47.068;15.458;2022-10-16T01:25:46;13.10;99.90
13268;DHT22;6702;47.068;15.458;2022-10-16T01:28:56;13.20;99.90
13268;DHT22;6702;47.068;15.458;2022-10-16T01:32:05;13.10;99.90
13268;DHT22;6702;47.068;15.458;2022-10-16T01:35:16;13.10;99.90
13268;DHT22;6702;47.068;15.458;2022-10-16T01:38:26;13.10;99.90
13268;DHT22;6702;47.068;15.458;2022-10-16T01:41:35;13.00;99.90
13268;DHT22;6702;47.068;15.458;2022-10-16T01:44:41;13.00;99.90
13268;DHT22;6702;47.068;15.458;2022-10-16T01:47:47;13.00;99.90
13268;DHT22;6702;47.068;15.458;2022-10-16T01:50:55;12.90;99.90
13268;DHT22;6702;47.068;15.458;2022-10-16T01:54:00;13.00;99.90
13268;DHT22;6702;47.068;15.458;2022-10-16T01:57:06;12.90;99.90
13268;DHT22;6702;47.068;15.458;2022-10-16T02:00:14;12.90;99.90
13268;DHT22;6702;47.068;15.458;2022-10-16T02:03:19;12.90;99.90
13268;DHT22;6702;47.068;15.458;2022-10-16T02:06:23;12.90;99.90
13268;DHT22;6702;47.068;15.458;2022-10-16T02:09:27;12.90;99.90
13268;DHT22;6702;47.068;15.458;2022-10-16T02:12:33;12.90;99.90
13268;DHT22;6702;47.068;15.458;2022-10-16T02:15:39;12.90;99.90
13268;DHT22;6702;47.068;15.458;2022-10-16T02:18:43;13.00;99.90
13268;DHT22;6702;47.068;15.458;2022-10-16T02:21:50;13.00;99.90
13268;DHT22;6702;47.068;15.458;2022-10-16T02:24:57;13.00;99.90
13268;DHT22;6702;47.068;15.458;2022-10-16T02:28:06;12.90;99.90
13268;DHT22;6702;47.068;15.458;2022-10-16T02:31:14;13.00;99.90
13268;DHT22;6702;47.068;15.458;2022-10-16T02:34:21;12.90;99.90
13268;DHT22;6702;47.068;15.458;2022-10-16T02:37:25;12.90;99.90
13268;DHT22;6702;47.068;15.458;2022-10-16T02:40:29;12.90;99.90
13268;DHT22;6702;47.068;15.458;2022-10-16T02:43:33;12.80;99.90
13268;DHT22;6702;47.068;15.458;2022-10-16T02:46:38;12.80;99.90
13268;DHT22;6702;47.068;15.458;2022-10-16T02:49:41;12.80;99.90
13268;DHT22;6702;47.068;15.458;2022-10-16T02:52:45;12.80;99.90
13268;DHT22;6702;47.068;15.458;2022-10-16T02:55:48;12.70;99.90
13268;DHT22;6702;47.068;15.458;2022-10-16T02:58:51;12.70;99.90
13268;DHT22;6702;47.068;15.458;2022-10-16T03:01:56;12.70;99.90
13268;DHT22;6702;47.068;15.458;2022-10-16T03:04:59;12.70;99.90
13268;DHT22;6702;47.068;15.458;2022-10-16T03:08:03;12.70;99.90
13268;DHT22;6702;47.068;15.458;2022-10-16T03:11:09;12.70;99.90
13268;DHT22;6702;47.068;15.458;2022-10-16T03:14:12;12.60;99.90
13268;DHT22;6702;47.068;15.458;2022-10-16T03:17:17;12.60;99.90
13268;DHT22;6702;47.068;15.458;2022-10-16T03:20:20;12.60;99.90
13268;DHT22;6702;47.068;15.458;2022-10-16T03:23:23;12.60;99.90
13268;DHT22;6702;47.068;15.458;2022-10-16T03:26:27;12.60;99.90
13268;DHT22;6702;47.068;15.458;2022-10-16T03:29:30;12.60;99.90
13268;DHT22;6702;47.068;15.458;2022-10-16T03:32:35;12.50;99.90
13268;DHT22;6702;47.068;15.458;2022-10-16T03:35:39;12.50;99.90
13268;DHT22;6702;47.068;15.458;2022-10-16T03:38:42;12.50;99.90
13268;DHT22;6702;47.068;15.458;2022-10-16T03:41:45;12.40;99.90
13268;DHT22;6702;47.068;15.458;2022-10-16T03:44:49;12.40;99.90
13268;DHT22;6702;47.068;15.458;2022-10-16T03:47:53;12.40;99.90
13268;DHT22;6702;47.068;15.458;2022-10-16T03:50:57;12.40;99.90
13268;DHT22;6702;47.068;15.458;2022-10-16T03:54:00;12.40;99.90
13268;DHT22;6702;47.068;15.458;2022-10-16T03:57:03;12.50;99.90
13268;DHT22;6702;47.068;15.458;2022-10-16T04:00:07;12.50;99.90
13268;DHT22;6702;47.068;15.458;2022-10-16T04:03:12;12.40;99.90
13268;DHT22;6702;47.068;15.458;2022-10-16T04:06:15;12.40;99.90
13268;DHT22;6702;47.068;15.458;2022-10-16T04:09:18;12.40;99.90
13268;DHT22;6702;47.068;15.458;2022-10-16T04:12:22;12.40;99.90
13268;DHT22;6702;47.068;15.458;2022-10-16T04:15:25;12.40;99.90
13268;DHT22;6702;47.068;15.458;2022-10-16T04:18:30;12.40;99.90
13268;DHT22;6702;47.068;15.458;2022-10-16T04:21:33;12.50;99.90
13268;DHT22;6702;47.068;15.458;2022-10-16T04:24:36;12.40;99.90
13268;DHT22;6702;47.068;15.458;2022-10-16T04:27:40;12.50;99.90
13268;DHT22;6702;47.068;15.458;2022-10-16T04:30:47;12.50;99.90
13268;DHT22;6702;47.068;15.458;2022-10-16T04:33:51;12.50;99.90
13268;DHT22;6702;47.068;15.458;2022-10-16T04:36:54;12.50;99.90
13268;DHT22;6702;47.068;15.458;2022-10-16T04:39:58;12.50;99.90
13268;DHT22;6702;47.068;15.458;2022-10-16T04:43:01;12.50;99.90
13268;DHT22;6702;47.068;15.458;2022-10-16T04:46:05;12.50;99.90
13268;DHT22;6702;47.068;15.458;2022-10-16T04:49:09;12.60;99.90
13268;DHT22;6702;47.068;15.458;2022-10-16T04:52:12;12.60;99.90
13268;DHT22;6702;47.068;15.458;2022-10-16T04:55:16;12.60;99.90
13268;DHT22;6702;47.068;15.458;2022-10-16T04:58:19;12.60;99.90
13268;DHT22;6702;47.068;15.458;2022-10-16T05:01:22;12.60;99.90
13268;DHT22;6702;47.068;15.458;2022-10-16T05:04:27;12.60;99.90
13268;DHT22;6702;47.068;15.458;2022-10-16T05:07:30;12.60;99.90
13268;DHT22;6702;47.068;15.458;2022-10-16T05:10:34;12.50;99.90
13268;DHT22;6702;47.068;15.458;2022-10-16T05:13:37;12.50;99.90
13268;DHT22;6702;47.068;15.458;2022-10-16T05:16:40;12.50;99.90
13268;DHT22;6702;47.068;15.458;2022-10-16T05:19:45;12.40;99.90
13268;DHT22;6702;47.068;15.458;2022-10-16T05:22:49;12.30;99.90
13268;DHT22;6702;47.068;15.458;2022-10-16T05:25:53;12.30;99.90
13268;DHT22;6702;47.068;15.458;2022-10-16T05:28:57;12.30;99.90
13268;DHT22;6702;47.068;15.458;2022-10-16T05:32:00;12.30;99.90
13268;DHT22;6702;47.068;15.458;2022-10-16T05:35:05;12.30;99.90
13268;DHT22;6702;47.068;15.458;2022-10-16T05:38:13;12.30;99.90
13268;DHT22;6702;47.068;15.458;2022-10-16T05:41:16;12.40;99.90
13268;DHT22;6702;47.068;15.458;2022-10-16T05:44:23;12.40;99.90
13268;DHT22;6702;47.068;15.458;2022-10-16T05:47:26;12.50;99.90
13268;DHT22;6702;47.068;15.458;2022-10-16T05:50:32;12.50;99.90
13268;DHT22;6702;47.068;15.458;2022-10-16T05:53:36;12.50;99.90
13268;DHT22;6702;47.068;15.458;2022-10-16T05:56:40;12.50;99.90
13268;DHT22;6702;47.068;15.458;2022-10-16T05:59:44;12.50;99.90
13268;DHT22;6702;47.068;15.458;2022-10-16T06:02:47;12.60;99.90
13268;DHT22;6702;47.068;15.458;2022-10-16T06:05:52;12.60;99.90
13268;DHT22;6702;47.068;15.458;2022-10-16T06:08:56;12.60;99.90
13268;DHT22;6702;47.068;15.458;2022-10-16T06:12:01;12.70;99.90
13268;DHT22;6702;47.068;15.458;2022-10-16T06:15:05;12.70;99.90
13268;DHT22;6702;47.068;15.458;2022-10-16T06:18:09;12.60;99.90
13268;DHT22;6702;47.068;15.458;2022-10-16T06:21:17;12.60;99.90
13268;DHT22;6702;47.068;15.458;2022-10-16T06:24:20;12.70;99.90
13268;DHT22;6702;47.068;15.458;2022-10-16T06:27:23;12.90;99.90
13268;DHT22;6702;47.068;15.458;2022-10-16T06:30:27;13.00;99.90
13268;DHT22;6702;47.068;15.458;2022-10-16T06:33:31;13.20;99.90
13268;DHT22;6702;47.068;15.458;2022-10-16T06:36:36;13.40;99.90
13268;DHT22;6702;47.068;15.458;2022-10-16T06:39:39;13.60;99.90
13268;DHT22;6702;47.068;15.458;2022-10-16T06:42:42;13.80;99.90
13268;DHT22;6702;47.068;15.458;2022-10-16T06:45:51;14.10;99.90
13268;DHT22;6702;47.068;15.458;2022-10-16T06:48:54;14.30;99.90
13268;DHT22;6702;47.068;15.458;2022-10-16T06:51:59;14.50;99.90
13268;DHT22;6702;47.068;15.458;2022-10-16T06:55:04;14.40;99.90
13268;DHT22;6702;47.068;15.458;2022-10-16T06:58:07;14.30;99.90
13268;DHT22;6702;47.068;15.458;2022-10-16T07:01:12;14.40;99.90
13268;DHT22;6702;47.068;15.458;2022-10-16T07:04:15;14.40;99.90
13268;DHT22;6702;47.068;15.458;2022-10-16T07:07:20;14.40;99.90
13268;DHT22;6702;47.068;15.458;2022-10-16T07:10:26;14.30;99.90
13268;DHT22;6702;47.068;15.458;2022-10-16T07:13:29;14.40;99.90
13268;DHT22;6702;47.068;15.458;2022-10-16T07:16:35;14.40;99.90
13268;DHT22;6702;47.068;15.458;2022-10-16T07:19:39;14.40;99.90
13268;DHT22;6702;47.068;15.458;2022-10-16T07:22:43;14.50;99.90
13268;DHT22;6702;47.068;15.458;2022-10-16T07:25:53;14.50;99.90
13268;DHT22;6702;47.068;15.458;2022-10-16T07:28:57;14.50;99.90
13268;DHT22;6702;47.068;15.458;2022-10-16T07:32:01;14.50;99.90
13268;DHT22;6702;47.068;15.458;2022-10-16T07:35:06;14.60;99.90
13268;DHT22;6702;47.068;15.458;2022-10-16T07:38:11;14.70;99.90
13268;DHT22;6702;47.068;15.458;2022-10-16T07:41:16;14.70;99.90
13268;DHT22;6702;47.068;15.458;2022-10-16T07:44:20;14.80;99.90
13268;DHT22;6702;47.068;15.458;2022-10-16T07:47:23;14.90;99.90
13268;DHT22;6702;47.068;15.458;2022-10-16T07:50:27;15.00;99.90
13268;DHT22;6702;47.068;15.458;2022-10-16T07:53:32;15.20;99.90
13268;DHT22;6702;47.068;15.458;2022-10-16T07:56:35;15.20;99.90
13268;DHT22;6702;47.068;15.458;2022-10-16T07:59:44;15.40;99.90
13268;DHT22;6702;47.068;15.458;2022-10-16T08:02:47;15.60;99.90
13268;DHT22;6702;47.068;15.458;2022-10-16T08:05:51;15.80;99.90
13268;DHT22;6702;47.068;15.458;2022-10-16T08:08:56;17.10;99.90
13268;DHT22;6702;47.068;15.458;2022-10-16T08:12:01;20.90;99.90
13268;DHT22;6702;47.068;15.458;2022-10-16T08:15:07;24.90;98.90
13268;DHT22;6702;47.068;15.458;2022-10-16T08:18:11;26.90;88.50
13268;DHT22;6702;47.068;15.458;2022-10-16T08:21:17;28.70;77.50
13268;DHT22;6702;47.068;15.458;2022-10-16T08:24:23;29.60;68.60
13268;DHT22;6702;47.068;15.458;2022-10-16T08:27:31;31.00;62.40
13268;DHT22;6702;47.068;15.458;2022-10-16T08:30:34;33.30;54.20
13268;DHT22;6702;47.068;15.458;2022-10-16T08:33:38;34.50;49.70
13268;DHT22;6702;47.068;15.458;2022-10-16T08:36:41;35.00;45.70
13268;DHT22;6702;47.068;15.458;2022-10-16T08:39:46;36.10;43.60
13268;DHT22;6702;47.068;15.458;2022-10-16T08:43:12;37.40;40.00
13268;DHT22;6702;47.068;15.458;2022-10-16T08:46:28;38.30;38.00
13268;DHT22;6702;47.068;15.458;2022-10-16T08:49:34;39.30;35.70
13268;DHT22;6702;47.068;15.458;2022-10-16T08:52:41;40.00;33.90
13268;DHT22;6702;47.068;15.458;2022-10-16T08:55:50;40.90;32.30
13268;DHT22;6702;47.068;15.458;2022-10-16T08:58:54;41.60;30.30
13268;DHT22;6702;47.068;15.458;2022-10-16T09:02:23;42.20;29.60
13268;DHT22;6702;47.068;15.458;2022-10-16T09:05:54;42.90;28.60
13268;DHT22;6702;47.068;15.458;2022-10-16T09:09:11;43.20;28.00
13268;DHT22;6702;47.068;15.458;2022-10-16T09:12:21;43.70;27.40
13268;DHT22;6702;47.068;15.458;2022-10-16T09:15:31;44.00;26.60
13268;DHT22;6702;47.068;15.458;2022-10-16T09:18:41;43.80;27.00
13268;DHT22;6702;47.068;15.458;2022-10-16T09:21:46;44.80;26.30
13268;DHT22;6702;47.068;15.458;2022-10-16T09:24:49;44.60;25.80
13268;DHT22;6702;47.068;15.458;2022-10-16T09:27:54;45.00;25.60
13268;DHT22;6702;47.068;15.458;2022-10-16T09:30:58;45.30;25.30
13268;DHT22;6702;47.068;15.458;2022-10-16T09:34:02;45.90;24.80
13268;DHT22;6702;47.068;15.458;2022-10-16T09:37:09;46.50;23.90
13268;DHT22;6702;47.068;15.458;2022-10-16T09:40:25;47.00;23.80
13268;DHT22;6702;47.068;15.458;2022-10-16T09:43:34;47.00;23.30
13268;DHT22;6702;47.068;15.458;2022-10-16T09:46:39;47.60;23.00
13268;DHT22;6702;47.068;15.458;2022-10-16T09:49:51;47.80;22.60
13268;DHT22;6702;47.068;15.458;2022-10-16T09:53:05;48.00;22.80
13268;DHT22;6702;47.068;15.458;2022-10-16T09:56:10;48.20;22.20
13268;DHT22;6702;47.068;15.458;2022-10-16T09:59:19;48.60;21.80
13268;DHT22;6702;47.068;15.458;2022-10-16T10:02:28;48.30;21.80
13268;DHT22;6702;47.068;15.458;2022-10-16T10:05:32;48.90;21.70
13268;DHT22;6702;47.068;15.458;2022-10-16T10:08:35;49.70;21.00
13268;DHT22;6702;47.068;15.458;2022-10-16T10:11:41;50.20;20.70
13268;DHT22;6702;47.068;15.458;2022-10-16T10:14:47;49.80;20.30
13268;DHT22;6702;47.068;15.458;2022-10-16T10:17:52;49.70;20.30
13268;DHT22;6702;47.068;15.458;2022-10-16T10:21:00;50.30;20.20
13268;DHT22;6702;47.068;15.458;2022-10-16T10:24:10;51.00;19.70
13268;DHT22;6702;47.068;15.458;2022-10-16T10:27:16;51.20;19.60
13268;DHT22;6702;47.068;15.458;2022-10-16T10:30:25;51.80;19.30
13268;DHT22;6702;47.068;15.458;2022-10-16T10:33:37;51.20;18.90
13268;DHT22;6702;47.068;15.458;2022-10-16T10:36:41;51.90;19.00
13268;DHT22;6702;47.068;15.458;2022-10-16T10:39:52;51.30;18.90
13268;DHT22;6702;47.068;15.458;2022-10-16T10:43:03;51.80;18.50
13268;DHT22;6702;47.068;15.458;2022-10-16T10:46:15;52.30;18.00
13268;DHT22;6702;47.068;15.458;2022-10-16T10:49:37;52.60;17.90
13268;DHT22;6702;47.068;15.458;2022-10-16T10:52:54;52.70;18.10
13268;DHT22;6702;47.068;15.458;2022-10-16T10:56:07;52.90;17.80
13268;DHT22;6702;47.068;15.458;2022-10-16T11:02:45;53.60;17.40
13268;DHT22;6702;47.068;15.458;2022-10-16T11:05:54;53.70;17.30
13268;DHT22;6702;47.068;15.458;2022-10-16T11:09:02;52.80;17.30
13268;DHT22;6702;47.068;15.458;2022-10-16T11:12:12;52.30;17.80
13268;DHT22;6702;47.068;15.458;2022-10-16T11:15:21;51.80;17.90
13268;DHT22;6702;47.068;15.458;2022-10-16T11:18:33;50.10;18.50
13268;DHT22;6702;47.068;15.458;2022-10-16T11:21:44;49.60;18.90
13268;DHT22;6702;47.068;15.458;2022-10-16T11:24:54;47.80;19.70
13268;DHT22;6702;47.068;15.458;2022-10-16T11:28:06;47.60;20.10
13268;DHT22;6702;47.068;15.458;2022-10-16T11:31:15;48.10;19.90
13268;DHT22;6702;47.068;15.458;2022-10-16T11:34:26;49.50;19.30
13268;DHT22;6702;47.068;15.458;2022-10-16T11:37:40;50.60;18.70
13268;DHT22;6702;47.068;15.458;2022-10-16T11:40:47;51.50;17.90
13268;DHT22;6702;47.068;15.458;2022-10-16T11:44:03;51.50;17.60
13268;DHT22;6702;47.068;15.458;2022-10-16T11:47:17;51.80;17.60
13268;DHT22;6702;47.068;15.458;2022-10-16T11:50:45;52.20;17.40
13268;DHT22;6702;47.068;15.458;2022-10-16T11:53:57;51.60;17.40
13268;DHT22;6702;47.068;15.458;2022-10-16T11:57:08;51.60;17.50
13268;DHT22;6702;47.068;15.458;2022-10-16T12:00:21;52.60;17.20
13268;DHT22;6702;47.068;15.458;2022-10-16T12:03:29;52.10;16.80
13268;DHT22;6702;47.068;15.458;2022-10-16T12:06:39;51.70;17.20
13268;DHT22;6702;47.068;15.458;2022-10-16T12:09:43;52.10;17.10
13268;DHT22;6702;47.068;15.458;2022-10-16T12:12:47;52.40;16.90
13268;DHT22;6702;47.068;15.458;2022-10-16T12:15:50;52.40;16.80
13268;DHT22;6702;47.068;15.458;2022-10-16T12:19:11;51.60;17.20
13268;DHT22;6702;47.068;15.458;2022-10-16T12:22:18;51.80;17.20
13268;DHT22;6702;47.068;15.458;2022-10-16T12:25:24;51.70;17.10
13268;DHT22;6702;47.068;15.458;2022-10-16T12:28:31;50.70;17.60
13268;DHT22;6702;47.068;15.458;2022-10-16T12:31:37;50.50;18.10
13268;DHT22;6702;47.068;15.458;2022-10-16T12:34:59;50.20;18.20
13268;DHT22;6702;47.068;15.458;2022-10-16T12:38:15;50.30;18.10
13268;DHT22;6702;47.068;15.458;2022-10-16T12:41:25;49.90;18.60
13268;DHT22;6702;47.068;15.458;2022-10-16T12:44:33;48.70;19.40
13268;DHT22;6702;47.068;15.458;2022-10-16T12:47:46;49.20;19.50
13268;DHT22;6702;47.068;15.458;2022-10-16T12:50:50;49.20;19.40
13268;DHT22;6702;47.068;15.458;2022-10-16T12:54:00;50.00;18.70
13268;DHT22;6702;47.068;15.458;2022-10-16T12:57:25;49.50;19.10
13268;DHT22;6702;47.068;15.458;2022-10-16T13:00:44;48.00;20.10
13268;DHT22;6702;47.068;15.458;2022-10-16T13:04:05;47.50;20.40
13268;DHT22;6702;47.068;15.458;2022-10-16T13:07:28;47.90;20.00
13268;DHT22;6702;47.068;15.458;2022-10-16T13:10:40;46.90;20.50
13268;DHT22;6702;47.068;15.458;2022-10-16T13:14:09;46.30;21.00
13268;DHT22;6702;47.068;15.458;2022-10-16T13:17:21;46.70;20.60
13268;DHT22;6702;47.068;15.458;2022-10-16T13:20:33;45.50;20.90
13268;DHT22;6702;47.068;15.458;2022-10-16T13:23:43;45.30;21.10
13268;DHT22;6702;47.068;15.458;2022-10-16T13:26:55;45.50;20.70
13268;DHT22;6702;47.068;15.458;2022-10-16T13:30:02;45.40;20.60
13268;DHT22;6702;47.068;15.458;2022-10-16T13:33:15;43.70;21.10
13268;DHT22;6702;47.068;15.458;2022-10-16T13:36:21;42.40;22.10
13268;DHT22;6702;47.068;15.458;2022-10-16T13:39:26;40.70;23.20
13268;DHT22;6702;47.068;15.458;2022-10-16T13:42:31;37.80;25.20
13268;DHT22;6702;47.068;15.458;2022-10-16T13:45:35;35.80;27.80
13268;DHT22;6702;47.068;15.458;2022-10-16T13:48:38;33.60;30.40
13268;DHT22;6702;47.068;15.458;2022-10-16T13:51:53;32.00;33.10
13268;DHT22;6702;47.068;15.458;2022-10-16T13:54:57;30.50;36.20
13268;DHT22;6702;47.068;15.458;2022-10-16T13:58:12;29.50;38.30
13268;DHT22;6702;47.068;15.458;2022-10-16T14:01:17;28.20;40.40
13268;DHT22;6702;47.068;15.458;2022-10-16T14:04:21;27.40;42.00
13268;DHT22;6702;47.068;15.458;2022-10-16T14:07:27;27.10;43.60
13268;DHT22;6702;47.068;15.458;2022-10-16T14:10:32;26.70;44.30
13268;DHT22;6702;47.068;15.458;2022-10-16T14:13:40;26.40;45.50
13268;DHT22;6702;47.068;15.458;2022-10-16T14:16:46;26.20;46.00
13268;DHT22;6702;47.068;15.458;2022-10-16T14:19:51;25.90;46.20
13268;DHT22;6702;47.068;15.458;2022-10-16T14:23:04;25.50;46.80
13268;DHT22;6702;47.068;15.458;2022-10-16T14:26:17;25.20;48.40
13268;DHT22;6702;47.068;15.458;2022-10-16T14:29:23;25.00;48.80
13268;DHT22;6702;47.068;15.458;2022-10-16T14:32:28;25.00;49.70
13268;DHT22;6702;47.068;15.458;2022-10-16T14:35:33;24.90;50.70
13268;DHT22;6702;47.068;15.458;2022-10-16T14:38:38;24.80;51.00
13268;DHT22;6702;47.068;15.458;2022-10-16T14:41:45;24.70;51.40
13268;DHT22;6702;47.068;15.458;2022-10-16T14:44:51;24.40;52.70
13268;DHT22;6702;47.068;15.458;2022-10-16T14:47:57;24.30;53.60
13268;DHT22;6702;47.068;15.458;2022-10-16T14:51:00;24.10;54.10
13268;DHT22;6702;47.068;15.458;2022-10-16T14:54:04;24.00;54.80
13268;DHT22;6702;47.068;15.458;2022-10-16T14:57:17;23.80;55.50
13268;DHT22;6702;47.068;15.458;2022-10-16T15:00:23;23.70;56.20
13268;DHT22;6702;47.068;15.458;2022-10-16T15:03:27;23.60;57.10
13268;DHT22;6702;47.068;15.458;2022-10-16T15:06:30;23.50;57.80
13268;DHT22;6702;47.068;15.458;2022-10-16T15:09:33;23.40;58.60
13268;DHT22;6702;47.068;15.458;2022-10-16T15:12:37;23.40;59.40
13268;DHT22;6702;47.068;15.458;2022-10-16T15:15:43;23.10;60.60
13268;DHT22;6702;47.068;15.458;2022-10-16T15:18:47;22.90;62.00
13268;DHT22;6702;47.068;15.458;2022-10-16T15:21:50;22.90;63.40
13268;DHT22;6702;47.068;15.458;2022-10-16T15:24:54;22.70;64.90
13268;DHT22;6702;47.068;15.458;2022-10-16T15:27:58;22.60;66.20
13268;DHT22;6702;47.068;15.458;2022-10-16T15:31:04;22.50;67.60
13268;DHT22;6702;47.068;15.458;2022-10-16T15:34:08;22.40;69.00
13268;DHT22;6702;47.068;15.458;2022-10-16T15:37:12;22.30;70.60
13268;DHT22;6702;47.068;15.458;2022-10-16T15:40:16;22.20;71.60
13268;DHT22;6702;47.068;15.458;2022-10-16T15:43:20;22.20;73.10
13268;DHT22;6702;47.068;15.458;2022-10-16T15:46:25;22.00;74.40
13268;DHT22;6702;47.068;15.458;2022-10-16T15:49:29;22.00;75.70
13268;DHT22;6702;47.068;15.458;2022-10-16T15:52:32;22.00;76.80
13268;DHT22;6702;47.068;15.458;2022-10-16T15:55:35;21.90;77.80
13268;DHT22;6702;47.068;15.458;2022-10-16T15:58:39;21.80;79.30
13268;DHT22;6702;47.068;15.458;2022-10-16T16:01:44;21.70;80.50
13268;DHT22;6702;47.068;15.458;2022-10-16T16:04:48;21.60;81.80
13268;DHT22;6702;47.068;15.458;2022-10-16T16:07:52;21.50;83.20
13268;DHT22;6702;47.068;15.458;2022-10-16T16:10:58;21.50;84.60
13268;DHT22;6702;47.068;15.458;2022-10-16T16:14:02;21.40;86.10
13268;DHT22;6702;47.068;15.458;2022-10-16T16:17:06;21.30;87.10
13268;DHT22;6702;47.068;15.458;2022-10-16T16:20:10;21.20;88.80
13268;DHT22;6702;47.068;15.458;2022-10-16T16:23:14;21.10;90.10
13268;DHT22;6702;47.068;15.458;2022-10-16T16:26:23;21.10;90.70
13268;DHT22;6702;47.068;15.458;2022-10-16T16:29:28;21.10;91.40
13268;DHT22;6702;47.068;15.458;2022-10-16T16:32:33;21.00;91.80
13268;DHT22;6702;47.068;15.458;2022-10-16T16:35:36;20.90;92.40
13268;DHT22;6702;47.068;15.458;2022-10-16T16:38:40;20.90;92.80
13268;DHT22;6702;47.068;15.458;2022-10-16T16:41:44;20.80;93.20
13268;DHT22;6702;47.068;15.458;2022-10-16T16:44:47;20.70;93.70
13268;DHT22;6702;47.068;15.458;2022-10-16T16:47:53;20.70;94.10
13268;DHT22;6702;47.068;15.458;2022-10-16T16:50:56;20.50;94.40
13268;DHT22;6702;47.068;15.458;2022-10-16T16:54:00;20.50;95.20
13268;DHT22;6702;47.068;15.458;2022-10-16T16:57:04;20.40;95.20
13268;DHT22;6702;47.068;15.458;2022-10-16T17:00:09;20.30;95.70
13268;DHT22;6702;47.068;15.458;2022-10-16T17:03:14;20.30;96.20
13268;DHT22;6702;47.068;15.458;2022-10-16T17:06:19;20.20;96.70
13268;DHT22;6702;47.068;15.458;2022-10-16T17:09:24;20.10;97.10
13268;DHT22;6702;47.068;15.458;2022-10-16T17:12:29;20.00;98.00
13268;DHT22;6702;47.068;15.458;2022-10-16T17:15:33;19.90;98.50
13268;DHT22;6702;47.068;15.458;2022-10-16T17:18:39;19.80;99.00
13268;DHT22;6702;47.068;15.458;2022-10-16T17:21:44;19.70;99.50
13268;DHT22;6702;47.068;15.458;2022-10-16T17:24:49;19.60;99.90
13268;DHT22;6702;47.068;15.458;2022-10-16T17:27:54;19.50;99.90
13268;DHT22;6702;47.068;15.458;2022-10-16T17:31:07;19.50;99.90
13268;DHT22;6702;47.068;15.458;2022-10-16T17:34:18;19.40;99.90
13268;DHT22;6702;47.068;15.458;2022-10-16T17:37:24;19.30;99.90
13268;DHT22;6702;47.068;15.458;2022-10-16T17:40:29;19.20;99.90
13268;DHT22;6702;47.068;15.458;2022-10-16T17:43:34;19.10;99.90
13268;DHT22;6702;47.068;15.458;2022-10-16T17:46:39;19.10;99.90
13268;DHT22;6702;47.068;15.458;2022-10-16T17:49:47;19.00;99.90
13268;DHT22;6702;47.068;15.458;2022-10-16T17:52:55;18.90;99.90
13268;DHT22;6702;47.068;15.458;2022-10-16T17:56:03;18.80;99.90
13268;DHT22;6702;47.068;15.458;2022-10-16T17:59:11;18.70;99.90
13268;DHT22;6702;47.068;15.458;2022-10-16T18:02:16;18.70;99.90
13268;DHT22;6702;47.068;15.458;2022-10-16T18:05:22;18.60;99.90
13268;DHT22;6702;47.068;15.458;2022-10-16T18:08:29;18.50;99.90
13268;DHT22;6702;47.068;15.458;2022-10-16T18:11:38;18.50;99.90
13268;DHT22;6702;47.068;15.458;2022-10-16T18:14:43;18.40;99.90
13268;DHT22;6702;47.068;15.458;2022-10-16T18:17:48;18.30;99.90
13268;DHT22;6702;47.068;15.458;2022-10-16T18:20:57;18.30;99.90
13268;DHT22;6702;47.068;15.458;2022-10-16T18:24:02;18.20;99.90
13268;DHT22;6702;47.068;15.458;2022-10-16T18:27:15;18.20;99.90
13268;DHT22;6702;47.068;15.458;2022-10-16T18:30:20;18.10;99.90
13268;DHT22;6702;47.068;15.458;2022-10-16T18:33:25;18.00;99.90
13268;DHT22;6702;47.068;15.458;2022-10-16T18:36:33;18.00;99.90
13268;DHT22;6702;47.068;15.458;2022-10-16T18:39:38;18.00;99.90
13268;DHT22;6702;47.068;15.458;2022-10-16T18:42:43;17.90;99.90
13268;DHT22;6702;47.068;15.458;2022-10-16T18:45:55;17.90;99.90
13268;DHT22;6702;47.068;15.458;2022-10-16T18:49:00;17.80;99.90
13268;DHT22;6702;47.068;15.458;2022-10-16T18:52:10;17.80;99.90
13268;DHT22;6702;47.068;15.458;2022-10-16T18:55:15;17.70;99.90
13268;DHT22;6702;47.068;15.458;2022-10-16T18:58:31;17.60;99.90
13268;DHT22;6702;47.068;15.458;2022-10-16T19:01:37;17.60;99.90
13268;DHT22;6702;47.068;15.458;2022-10-16T19:04:46;17.50;99.90
13268;DHT22;6702;47.068;15.458;2022-10-16T19:07:53;17.40;99.90
13268;DHT22;6702;47.068;15.458;2022-10-16T19:11:02;17.40;99.90
13268;DHT22;6702;47.068;15.458;2022-10-16T19:14:09;17.30;99.90
13268;DHT22;6702;47.068;15.458;2022-10-16T19:17:14;17.30;99.90
13268;DHT22;6702;47.068;15.458;2022-10-16T19:20:20;17.30;99.90
13268;DHT22;6702;47.068;15.458;2022-10-16T19:23:25;17.20;99.90
13268;DHT22;6702;47.068;15.458;2022-10-16T19:26:30;17.20;99.90
13268;DHT22;6702;47.068;15.458;2022-10-16T19:29:40;17.10;99.90
13268;DHT22;6702;47.068;15.458;2022-10-16T19:32:44;17.00;99.90
13268;DHT22;6702;47.068;15.458;2022-10-16T19:35:51;17.00;99.90
13268;DHT22;6702;47.068;15.458;2022-10-16T19:38:57;16.90;99.90
13268;DHT22;6702;47.068;15.458;2022-10-16T19:42:02;16.80;99.90